sensor_id;sensor_type;location;lat;lon;timestamp;temperature;humidity
8103;DHT22;4094;49.948;11.574;2023-05-08T00:01:02;17.00;52.00
8103;DHT22;4094;49.948;11.574;2023-05-08T00:03:31;16.90;52.00
8103;DHT22;4094;49.948;11.574;2023-05-08T00:06:05;16.90;52.10
8103;DHT22;4094;49.948;11.574;2023-05-08T00:08:34;16.90;52.40
8103;DHT22;4094;49.948;11.574;2023-05-08T00:11:03;16.90;52.40
8103;DHT22;4094;49.948;11.574;2023-05-08T00:13:32;16.90;52.20
8103;DHT22;4094;49.948;11.574;2023-05-08T00:16:02;16.90;52.10
8103;DHT22;4094;49.948;11.574;2023-05-08T00:18:31;16.90;52.20
8103;DHT22;4094;49.948;11.574;2023-05-08T00:21:00;16.80;52.20
8103;DHT22;4094;49.948;11.574;2023-05-08T00:23:31;16.70;52.10
8103;DHT22;4094;49.948;11.574;2023-05-08T00:26:00;16.70;52.20
8103;DHT22;4094;49.948;11.574;2023-05-08T00:28:29;16.70;52.30
8103;DHT22;4094;49.948;11.574;2023-05-08T00:30:59;16.60;52.40
8103;DHT22;4094;49.948;11.574;2023-05-08T00:33:28;16.60;52.60
8103;DHT22;4094;49.948;11.574;2023-05-08T00:35:58;16.50;52.60
8103;DHT22;4094;49.948;11.574;2023-05-08T00:38:31;16.50;52.60
8103;DHT22;4094;49.948;11.574;2023-05-08T00:41:01;16.50;52.90
8103;DHT22;4094;49.948;11.574;2023-05-08T00:43:30;16.40;52.60
8103;DHT22;4094;49.948;11.574;2023-05-08T00:46:00;16.40;52.80
8103;DHT22;4094;49.948;11.574;2023-05-08T00:48:32;16.40;52.70
8103;DHT22;4094;49.948;11.574;2023-05-08T00:51:05;16.40;52.80
8103;DHT22;4094;49.948;11.574;2023-05-08T00:53:40;16.40;52.70
8103;DHT22;4094;49.948;11.574;2023-05-08T00:56:13;16.30;53.00
8103;DHT22;4094;49.948;11.574;2023-05-08T00:58:44;16.30;52.90
8103;DHT22;4094;49.948;11.574;2023-05-08T01:01:13;16.20;52.90
8103;DHT22;4094;49.948;11.574;2023-05-08T01:03:43;16.20;53.00
8103;DHT22;4094;49.948;11.574;2023-05-08T01:06:13;16.20;53.00
8103;DHT22;4094;49.948;11.574;2023-05-08T01:08:44;16.20;53.10
8103;DHT22;4094;49.948;11.574;2023-05-08T01:11:19;16.20;53.00
8103;DHT22;4094;49.948;11.574;2023-05-08T01:13:59;16.20;53.00
8103;DHT22;4094;49.948;11.574;2023-05-08T01:16:37;16.20;53.20
8103;DHT22;4094;49.948;11.574;2023-05-08T01:19:26;16.20;53.00
8103;DHT22;4094;49.948;11.574;2023-05-08T01:21:59;16.10;53.10
8103;DHT22;4094;49.948;11.574;2023-05-08T01:24:53;16.10;53.00
8103;DHT22;4094;49.948;11.574;2023-05-08T01:27:46;16.10;53.10
8103;DHT22;4094;49.948;11.574;2023-05-08T01:30:47;16.10;53.10
8103;DHT22;4094;49.948;11.574;2023-05-08T01:33:24;16.10;53.10
8103;DHT22;4094;49.948;11.574;2023-05-08T01:35:59;16.10;53.10
8103;DHT22;4094;49.948;11.574;2023-05-08T01:38:31;16.00;53.00
8103;DHT22;4094;49.948;11.574;2023-05-08T01:41:07;16.00;53.30
8103;DHT22;4094;49.948;11.574;2023-05-08T01:43:43;16.00;53.10
8103;DHT22;4094;49.948;11.574;2023-05-08T01:46:17;15.90;53.00
8103;DHT22;4094;49.948;11.574;2023-05-08T01:48:55;15.90;53.10
8103;DHT22;4094;49.948;11.574;2023-05-08T01:51:27;15.90;53.30
8103;DHT22;4094;49.948;11.574;2023-05-08T01:54:05;15.90;53.20
8103;DHT22;4094;49.948;11.574;2023-05-08T01:56:38;15.80;53.20
8103;DHT22;4094;49.948;11.574;2023-05-08T01:59:09;15.80;53.20
8103;DHT22;4094;49.948;11.574;2023-05-08T02:01:40;15.80;53.20
8103;DHT22;4094;49.948;11.574;2023-05-08T02:04:13;15.80;53.40
8103;DHT22;4094;49.948;11.574;2023-05-08T02:06:43;15.80;53.30
8103;DHT22;4094;49.948;11.574;2023-05-08T02:09:12;15.80;53.40
8103;DHT22;4094;49.948;11.574;2023-05-08T02:11:43;15.80;53.30
8103;DHT22;4094;49.948;11.574;2023-05-08T02:14:19;15.70;53.10
8103;DHT22;4094;49.948;11.574;2023-05-08T02:16:50;15.70;53.20
8103;DHT22;4094;49.948;11.574;2023-05-08T02:19:24;15.70;53.20
8103;DHT22;4094;49.948;11.574;2023-05-08T02:21:54;15.70;53.20
8103;DHT22;4094;49.948;11.574;2023-05-08T02:24:25;15.60;53.20
8103;DHT22;4094;49.948;11.574;2023-05-08T02:26:55;15.60;53.20
8103;DHT22;4094;49.948;11.574;2023-05-08T02:29:26;15.50;53.20
8103;DHT22;4094;49.948;11.574;2023-05-08T02:31:57;15.50;53.20
8103;DHT22;4094;49.948;11.574;2023-05-08T02:34:30;15.50;53.30
8103;DHT22;4094;49.948;11.574;2023-05-08T02:37:01;15.50;53.30
8103;DHT22;4094;49.948;11.574;2023-05-08T02:39:33;15.50;53.40
8103;DHT22;4094;49.948;11.574;2023-05-08T02:42:03;15.40;53.30
8103;DHT22;4094;49.948;11.574;2023-05-08T02:44:32;15.40;53.30
8103;DHT22;4094;49.948;11.574;2023-05-08T02:47:07;15.40;53.40
8103;DHT22;4094;49.948;11.574;2023-05-08T02:49:44;15.30;53.50
8103;DHT22;4094;49.948;11.574;2023-05-08T02:52:20;15.30;53.50
8103;DHT22;4094;49.948;11.574;2023-05-08T02:54:55;15.20;53.60
8103;DHT22;4094;49.948;11.574;2023-05-08T02:57:33;15.20;53.70
8103;DHT22;4094;49.948;11.574;2023-05-08T03:00:09;15.20;53.70
8103;DHT22;4094;49.948;11.574;2023-05-08T03:02:43;15.10;53.70
8103;DHT22;4094;49.948;11.574;2023-05-08T03:05:19;15.10;53.80
8103;DHT22;4094;49.948;11.574;2023-05-08T03:07:53;15.10;53.80
8103;DHT22;4094;49.948;11.574;2023-05-08T03:10:28;15.10;53.80
8103;DHT22;4094;49.948;11.574;2023-05-08T03:13:02;15.10;53.80
8103;DHT22;4094;49.948;11.574;2023-05-08T03:15:36;15.10;53.90
8103;DHT22;4094;49.948;11.574;2023-05-08T03:18:08;15.10;53.90
8103;DHT22;4094;49.948;11.574;2023-05-08T03:20:43;15.00;53.90
8103;DHT22;4094;49.948;11.574;2023-05-08T03:23:14;15.00;53.90
8103;DHT22;4094;49.948;11.574;2023-05-08T03:25:45;15.00;54.00
8103;DHT22;4094;49.948;11.574;2023-05-08T03:28:16;15.00;54.10
8103;DHT22;4094;49.948;11.574;2023-05-08T03:30:47;15.00;54.20
8103;DHT22;4094;49.948;11.574;2023-05-08T03:33:18;15.00;54.10
8103;DHT22;4094;49.948;11.574;2023-05-08T03:35:51;14.90;54.00
8103;DHT22;4094;49.948;11.574;2023-05-08T03:38:21;14.90;54.10
8103;DHT22;4094;49.948;11.574;2023-05-08T03:40:52;14.80;54.00
8103;DHT22;4094;49.948;11.574;2023-05-08T03:43:22;14.80;54.20
8103;DHT22;4094;49.948;11.574;2023-05-08T03:45:52;14.70;54.20
8103;DHT22;4094;49.948;11.574;2023-05-08T03:48:22;14.70;54.20
8103;DHT22;4094;49.948;11.574;2023-05-08T03:50:55;14.70;54.40
8103;DHT22;4094;49.948;11.574;2023-05-08T03:53:26;14.60;55.00
8103;DHT22;4094;49.948;11.574;2023-05-08T03:55:57;14.50;54.60
8103;DHT22;4094;49.948;11.574;2023-05-08T03:58:31;14.50;54.60
8103;DHT22;4094;49.948;11.574;2023-05-08T04:01:06;14.50;54.80
8103;DHT22;4094;49.948;11.574;2023-05-08T04:03:48;14.50;54.70
8103;DHT22;4094;49.948;11.574;2023-05-08T04:06:28;14.50;54.80
8103;DHT22;4094;49.948;11.574;2023-05-08T04:09:17;14.50;54.80
8103;DHT22;4094;49.948;11.574;2023-05-08T04:11:54;14.40;55.00
8103;DHT22;4094;49.948;11.574;2023-05-08T04:14:30;14.40;55.00
8103;DHT22;4094;49.948;11.574;2023-05-08T04:17:02;14.40;55.00
8103;DHT22;4094;49.948;11.574;2023-05-08T04:19:37;14.40;54.90
8103;DHT22;4094;49.948;11.574;2023-05-08T04:22:14;14.40;54.90
8103;DHT22;4094;49.948;11.574;2023-05-08T04:24:47;14.30;55.10
8103;DHT22;4094;49.948;11.574;2023-05-08T04:27:19;14.30;55.10
8103;DHT22;4094;49.948;11.574;2023-05-08T04:29:48;14.30;55.10
8103;DHT22;4094;49.948;11.574;2023-05-08T04:32:18;14.30;55.20
8103;DHT22;4094;49.948;11.574;2023-05-08T04:34:48;14.30;55.20
8103;DHT22;4094;49.948;11.574;2023-05-08T04:37:23;14.20;55.10
8103;DHT22;4094;49.948;11.574;2023-05-08T04:39:54;14.20;55.50
8103;DHT22;4094;49.948;11.574;2023-05-08T04:42:24;14.20;55.30
8103;DHT22;4094;49.948;11.574;2023-05-08T04:44:56;14.20;55.30
8103;DHT22;4094;49.948;11.574;2023-05-08T04:47:26;14.10;55.40
8103;DHT22;4094;49.948;11.574;2023-05-08T04:49:55;14.10;55.60
8103;DHT22;4094;49.948;11.574;2023-05-08T04:52:29;14.10;56.00
8103;DHT22;4094;49.948;11.574;2023-05-08T04:54:58;14.10;56.00
8103;DHT22;4094;49.948;11.574;2023-05-08T04:57:29;14.10;55.90
8103;DHT22;4094;49.948;11.574;2023-05-08T04:59:58;14.10;56.00
8103;DHT22;4094;49.948;11.574;2023-05-08T05:02:30;14.10;56.00
8103;DHT22;4094;49.948;11.574;2023-05-08T05:04:59;14.10;56.00
8103;DHT22;4094;49.948;11.574;2023-05-08T05:07:32;14.10;56.20
8103;DHT22;4094;49.948;11.574;2023-05-08T05:10:02;14.10;56.50
8103;DHT22;4094;49.948;11.574;2023-05-08T05:12:33;14.10;56.30
8103;DHT22;4094;49.948;11.574;2023-05-08T05:15:03;14.10;56.20
8103;DHT22;4094;49.948;11.574;2023-05-08T05:17:34;14.10;56.40
8103;DHT22;4094;49.948;11.574;2023-05-08T05:20:05;14.20;56.40
8103;DHT22;4094;49.948;11.574;2023-05-08T05:22:37;14.20;56.40
8103;DHT22;4094;49.948;11.574;2023-05-08T05:25:09;14.20;56.30
8103;DHT22;4094;49.948;11.574;2023-05-08T05:27:39;14.20;56.40
8103;DHT22;4094;49.948;11.574;2023-05-08T05:30:09;14.20;56.40
8103;DHT22;4094;49.948;11.574;2023-05-08T05:32:39;14.20;56.40
8103;DHT22;4094;49.948;11.574;2023-05-08T05:35:10;14.20;56.40
8103;DHT22;4094;49.948;11.574;2023-05-08T05:37:42;14.30;56.40
8103;DHT22;4094;49.948;11.574;2023-05-08T05:40:12;14.30;56.90
8103;DHT22;4094;49.948;11.574;2023-05-08T05:42:47;14.30;56.80
8103;DHT22;4094;49.948;11.574;2023-05-08T05:45:18;14.30;56.70
8103;DHT22;4094;49.948;11.574;2023-05-08T05:47:48;14.40;56.70
8103;DHT22;4094;49.948;11.574;2023-05-08T05:50:23;14.40;56.60
8103;DHT22;4094;49.948;11.574;2023-05-08T05:52:55;14.40;56.60
8103;DHT22;4094;49.948;11.574;2023-05-08T05:55:26;14.50;56.70
8103;DHT22;4094;49.948;11.574;2023-05-08T05:57:55;14.50;56.50
8103;DHT22;4094;49.948;11.574;2023-05-08T06:00:25;14.50;56.80
8103;DHT22;4094;49.948;11.574;2023-05-08T06:02:56;14.60;56.80
8103;DHT22;4094;49.948;11.574;2023-05-08T06:05:26;14.60;56.60
8103;DHT22;4094;49.948;11.574;2023-05-08T06:07:57;14.60;56.60
8103;DHT22;4094;49.948;11.574;2023-05-08T06:10:26;14.70;56.50
8103;DHT22;4094;49.948;11.574;2023-05-08T06:12:55;14.70;56.50
8103;DHT22;4094;49.948;11.574;2023-05-08T06:15:25;14.70;56.50
8103;DHT22;4094;49.948;11.574;2023-05-08T06:17:55;14.80;56.50
8103;DHT22;4094;49.948;11.574;2023-05-08T06:20:24;14.90;56.70
8103;DHT22;4094;49.948;11.574;2023-05-08T06:22:53;14.90;56.50
8103;DHT22;4094;49.948;11.574;2023-05-08T06:25:24;15.00;56.50
8103;DHT22;4094;49.948;11.574;2023-05-08T06:27:55;15.00;57.00
8103;DHT22;4094;49.948;11.574;2023-05-08T06:30:24;15.10;56.90
8103;DHT22;4094;49.948;11.574;2023-05-08T06:32:53;15.20;56.60
8103;DHT22;4094;49.948;11.574;2023-05-08T06:35:23;15.20;56.50
8103;DHT22;4094;49.948;11.574;2023-05-08T06:37:53;15.30;56.20
8103;DHT22;4094;49.948;11.574;2023-05-08T06:40:23;15.40;56.30
8103;DHT22;4094;49.948;11.574;2023-05-08T06:42:53;15.40;56.10
8103;DHT22;4094;49.948;11.574;2023-05-08T06:45:22;15.50;56.10
8103;DHT22;4094;49.948;11.574;2023-05-08T06:47:51;15.50;56.20
8103;DHT22;4094;49.948;11.574;2023-05-08T06:50:21;15.60;56.00
8103;DHT22;4094;49.948;11.574;2023-05-08T06:52:50;15.60;55.80
8103;DHT22;4094;49.948;11.574;2023-05-08T06:55:20;15.60;55.70
8103;DHT22;4094;49.948;11.574;2023-05-08T06:57:50;15.60;55.50
8103;DHT22;4094;49.948;11.574;2023-05-08T07:00:20;15.60;55.50
8103;DHT22;4094;49.948;11.574;2023-05-08T07:02:49;15.70;55.40
8103;DHT22;4094;49.948;11.574;2023-05-08T07:05:18;15.70;55.40
8103;DHT22;4094;49.948;11.574;2023-05-08T07:07:47;15.60;55.30
8103;DHT22;4094;49.948;11.574;2023-05-08T07:10:17;15.60;55.40
8103;DHT22;4094;49.948;11.574;2023-05-08T07:12:50;15.70;55.50
8103;DHT22;4094;49.948;11.574;2023-05-08T07:15:20;15.70;55.50
8103;DHT22;4094;49.948;11.574;2023-05-08T07:17:54;15.70;55.40
8103;DHT22;4094;49.948;11.574;2023-05-08T07:20:23;15.70;55.40
8103;DHT22;4094;49.948;11.574;2023-05-08T07:22:52;15.70;55.40
8103;DHT22;4094;49.948;11.574;2023-05-08T07:25:21;15.70;55.50
8103;DHT22;4094;49.948;11.574;2023-05-08T07:27:52;15.80;55.70
8103;DHT22;4094;49.948;11.574;2023-05-08T07:30:21;15.80;55.60
8103;DHT22;4094;49.948;11.574;2023-05-08T07:32:50;15.90;55.60
8103;DHT22;4094;49.948;11.574;2023-05-08T07:35:19;15.90;55.50
8103;DHT22;4094;49.948;11.574;2023-05-08T07:37:49;15.90;55.40
8103;DHT22;4094;49.948;11.574;2023-05-08T07:40:18;16.00;55.60
8103;DHT22;4094;49.948;11.574;2023-05-08T07:42:47;16.00;55.60
8103;DHT22;4094;49.948;11.574;2023-05-08T07:45:18;16.10;55.60
8103;DHT22;4094;49.948;11.574;2023-05-08T07:47:48;16.10;55.60
8103;DHT22;4094;49.948;11.574;2023-05-08T07:50:18;16.20;55.60
8103;DHT22;4094;49.948;11.574;2023-05-08T07:52:48;16.20;55.20
8103;DHT22;4094;49.948;11.574;2023-05-08T07:55:18;16.20;55.20
8103;DHT22;4094;49.948;11.574;2023-05-08T07:57:48;16.30;55.30
8103;DHT22;4094;49.948;11.574;2023-05-08T08:00:19;16.30;55.30
8103;DHT22;4094;49.948;11.574;2023-05-08T08:02:48;16.40;55.50
8103;DHT22;4094;49.948;11.574;2023-05-08T08:05:18;16.50;55.80
8103;DHT22;4094;49.948;11.574;2023-05-08T08:07:48;16.60;55.70
8103;DHT22;4094;49.948;11.574;2023-05-08T08:10:17;16.70;55.50
8103;DHT22;4094;49.948;11.574;2023-05-08T08:12:46;16.80;55.20
8103;DHT22;4094;49.948;11.574;2023-05-08T08:15:16;16.90;54.90
8103;DHT22;4094;49.948;11.574;2023-05-08T08:17:47;17.00;55.00
8103;DHT22;4094;49.948;11.574;2023-05-08T08:20:16;17.10;55.00
8103;DHT22;4094;49.948;11.574;2023-05-08T08:22:46;17.20;55.20
8103;DHT22;4094;49.948;11.574;2023-05-08T08:25:15;17.40;54.90
8103;DHT22;4094;49.948;11.574;2023-05-08T08:27:44;17.50;54.50
8103;DHT22;4094;49.948;11.574;2023-05-08T08:30:14;17.60;54.50
8103;DHT22;4094;49.948;11.574;2023-05-08T08:32:47;17.70;54.40
8103;DHT22;4094;49.948;11.574;2023-05-08T08:35:17;17.70;54.20
8103;DHT22;4094;49.948;11.574;2023-05-08T08:37:47;17.80;54.00
8103;DHT22;4094;49.948;11.574;2023-05-08T08:40:17;17.90;54.10
8103;DHT22;4094;49.948;11.574;2023-05-08T08:42:46;18.00;54.10
8103;DHT22;4094;49.948;11.574;2023-05-08T08:45:16;18.10;53.90
8103;DHT22;4094;49.948;11.574;2023-05-08T08:47:48;18.20;53.70
8103;DHT22;4094;49.948;11.574;2023-05-08T08:50:21;18.30;53.70
8103;DHT22;4094;49.948;11.574;2023-05-08T08:52:55;18.40;53.40
8103;DHT22;4094;49.948;11.574;2023-05-08T08:55:29;18.50;53.10
8103;DHT22;4094;49.948;11.574;2023-05-08T08:58:06;18.50;52.70
8103;DHT22;4094;49.948;11.574;2023-05-08T09:00:41;18.60;53.20
8103;DHT22;4094;49.948;11.574;2023-05-08T09:03:13;18.60;52.80
8103;DHT22;4094;49.948;11.574;2023-05-08T09:05:43;18.60;52.50
8103;DHT22;4094;49.948;11.574;2023-05-08T09:08:13;18.70;52.90
8103;DHT22;4094;49.948;11.574;2023-05-08T09:10:42;18.70;52.90
8103;DHT22;4094;49.948;11.574;2023-05-08T09:13:12;18.80;52.60
8103;DHT22;4094;49.948;11.574;2023-05-08T09:15:42;18.90;52.60
8103;DHT22;4094;49.948;11.574;2023-05-08T09:18:13;19.00;52.40
8103;DHT22;4094;49.948;11.574;2023-05-08T09:20:42;19.00;52.50
8103;DHT22;4094;49.948;11.574;2023-05-08T09:23:13;19.10;52.50
8103;DHT22;4094;49.948;11.574;2023-05-08T09:25:45;19.10;52.50
8103;DHT22;4094;49.948;11.574;2023-05-08T09:28:15;19.20;52.50
8103;DHT22;4094;49.948;11.574;2023-05-08T09:30:50;19.20;52.30
8103;DHT22;4094;49.948;11.574;2023-05-08T09:33:23;19.20;51.90
8103;DHT22;4094;49.948;11.574;2023-05-08T09:35:55;19.30;52.00
8103;DHT22;4094;49.948;11.574;2023-05-08T09:38:35;19.30;52.20
8103;DHT22;4094;49.948;11.574;2023-05-08T09:41:06;19.40;52.00
8103;DHT22;4094;49.948;11.574;2023-05-08T09:43:36;19.40;51.90
8103;DHT22;4094;49.948;11.574;2023-05-08T09:46:22;19.40;51.80
8103;DHT22;4094;49.948;11.574;2023-05-08T09:48:55;19.50;51.80
8103;DHT22;4094;49.948;11.574;2023-05-08T09:51:26;19.50;52.10
8103;DHT22;4094;49.948;11.574;2023-05-08T09:53:58;19.60;52.50
8103;DHT22;4094;49.948;11.574;2023-05-08T09:56:32;19.70;52.40
8103;DHT22;4094;49.948;11.574;2023-05-08T09:59:03;19.80;51.60
8103;DHT22;4094;49.948;11.574;2023-05-08T10:01:34;19.90;51.80
8103;DHT22;4094;49.948;11.574;2023-05-08T10:04:05;19.90;51.60
8103;DHT22;4094;49.948;11.574;2023-05-08T10:06:34;20.00;51.60
8103;DHT22;4094;49.948;11.574;2023-05-08T10:09:08;20.10;51.10
8103;DHT22;4094;49.948;11.574;2023-05-08T10:11:39;20.10;51.20
8103;DHT22;4094;49.948;11.574;2023-05-08T10:14:09;20.20;51.10
8103;DHT22;4094;49.948;11.574;2023-05-08T10:16:41;20.20;50.60
8103;DHT22;4094;49.948;11.574;2023-05-08T10:19:15;20.30;50.70
8103;DHT22;4094;49.948;11.574;2023-05-08T10:21:46;20.30;50.70
8103;DHT22;4094;49.948;11.574;2023-05-08T10:24:17;20.30;50.50
8103;DHT22;4094;49.948;11.574;2023-05-08T10:26:52;20.40;50.20
8103;DHT22;4094;49.948;11.574;2023-05-08T10:29:41;20.40;49.80
8103;DHT22;4094;49.948;11.574;2023-05-08T10:32:11;20.40;49.70
8103;DHT22;4094;49.948;11.574;2023-05-08T10:34:47;20.40;49.90
8103;DHT22;4094;49.948;11.574;2023-05-08T10:37:18;20.40;49.90
8103;DHT22;4094;49.948;11.574;2023-05-08T10:39:48;20.40;49.70
8103;DHT22;4094;49.948;11.574;2023-05-08T10:42:18;20.40;49.90
8103;DHT22;4094;49.948;11.574;2023-05-08T10:44:48;20.40;49.60
8103;DHT22;4094;49.948;11.574;2023-05-08T10:47:21;20.40;49.60
8103;DHT22;4094;49.948;11.574;2023-05-08T10:50:00;20.40;49.70
8103;DHT22;4094;49.948;11.574;2023-05-08T10:52:36;20.40;49.80
8103;DHT22;4094;49.948;11.574;2023-05-08T10:55:19;20.40;49.80
8103;DHT22;4094;49.948;11.574;2023-05-08T10:58:05;20.50;49.70
8103;DHT22;4094;49.948;11.574;2023-05-08T11:01:12;20.50;49.70
8103;DHT22;4094;49.948;11.574;2023-05-08T11:03:44;20.60;49.50
8103;DHT22;4094;49.948;11.574;2023-05-08T11:06:16;20.60;49.50
8103;DHT22;4094;49.948;11.574;2023-05-08T11:08:48;20.70;49.30
8103;DHT22;4094;49.948;11.574;2023-05-08T11:11:27;20.70;49.30
8103;DHT22;4094;49.948;11.574;2023-05-08T11:14:08;20.70;49.30
8103;DHT22;4094;49.948;11.574;2023-05-08T11:17:04;20.70;49.30
8103;DHT22;4094;49.948;11.574;2023-05-08T11:19:34;20.80;49.30
8103;DHT22;4094;49.948;11.574;2023-05-08T11:22:20;20.80;49.00
8103;DHT22;4094;49.948;11.574;2023-05-08T11:24:58;20.80;49.30
8103;DHT22;4094;49.948;11.574;2023-05-08T11:27:37;20.90;49.10
8103;DHT22;4094;49.948;11.574;2023-05-08T11:30:32;20.80;48.80
8103;DHT22;4094;49.948;11.574;2023-05-08T11:33:13;20.90;48.80
8103;DHT22;4094;49.948;11.574;2023-05-08T11:35:45;20.80;48.80
8103;DHT22;4094;49.948;11.574;2023-05-08T11:38:31;20.80;48.70
8103;DHT22;4094;49.948;11.574;2023-05-08T11:41:06;20.80;48.40
8103;DHT22;4094;49.948;11.574;2023-05-08T11:44:15;20.80;48.80
8103;DHT22;4094;49.948;11.574;2023-05-08T11:46:49;20.80;48.80
8103;DHT22;4094;49.948;11.574;2023-05-08T11:49:22;20.80;48.70
8103;DHT22;4094;49.948;11.574;2023-05-08T11:51:58;20.80;48.80
8103;DHT22;4094;49.948;11.574;2023-05-08T11:54:30;20.80;49.10
8103;DHT22;4094;49.948;11.574;2023-05-08T11:57:00;20.90;48.80
8103;DHT22;4094;49.948;11.574;2023-05-08T11:59:34;20.90;48.70
8103;DHT22;4094;49.948;11.574;2023-05-08T12:02:05;20.90;48.80
8103;DHT22;4094;49.948;11.574;2023-05-08T12:04:43;21.00;48.40
8103;DHT22;4094;49.948;11.574;2023-05-08T12:07:13;21.00;48.30
8103;DHT22;4094;49.948;11.574;2023-05-08T12:09:46;21.10;48.20
8103;DHT22;4094;49.948;11.574;2023-05-08T12:12:15;21.10;47.90
8103;DHT22;4094;49.948;11.574;2023-05-08T12:14:48;21.10;48.00
8103;DHT22;4094;49.948;11.574;2023-05-08T12:17:18;21.20;48.40
8103;DHT22;4094;49.948;11.574;2023-05-08T12:19:48;21.20;47.80
8103;DHT22;4094;49.948;11.574;2023-05-08T12:22:22;21.20;47.80
8103;DHT22;4094;49.948;11.574;2023-05-08T12:24:52;21.20;47.70
8103;DHT22;4094;49.948;11.574;2023-05-08T12:27:23;21.30;48.10
8103;DHT22;4094;49.948;11.574;2023-05-08T12:29:54;21.40;48.00
8103;DHT22;4094;49.948;11.574;2023-05-08T12:32:23;21.40;47.90
8103;DHT22;4094;49.948;11.574;2023-05-08T12:34:55;21.50;47.50
8103;DHT22;4094;49.948;11.574;2023-05-08T12:37:26;21.60;47.30
8103;DHT22;4094;49.948;11.574;2023-05-08T12:39:57;21.60;47.00
8103;DHT22;4094;49.948;11.574;2023-05-08T12:42:42;21.70;46.30
8103;DHT22;4094;49.948;11.574;2023-05-08T12:45:17;21.70;47.10
8103;DHT22;4094;49.948;11.574;2023-05-08T12:47:48;21.80;46.70
8103;DHT22;4094;49.948;11.574;2023-05-08T12:50:18;21.90;46.50
8103;DHT22;4094;49.948;11.574;2023-05-08T12:52:49;21.90;46.20
8103;DHT22;4094;49.948;11.574;2023-05-08T12:55:22;22.00;46.00
8103;DHT22;4094;49.948;11.574;2023-05-08T12:57:59;22.00;46.40
8103;DHT22;4094;49.948;11.574;2023-05-08T13:00:36;22.00;45.50
8103;DHT22;4094;49.948;11.574;2023-05-08T13:03:07;22.00;45.30
8103;DHT22;4094;49.948;11.574;2023-05-08T13:05:41;22.00;45.60
8103;DHT22;4094;49.948;11.574;2023-05-08T13:08:10;22.00;45.80
8103;DHT22;4094;49.948;11.574;2023-05-08T13:10:45;22.00;45.70
8103;DHT22;4094;49.948;11.574;2023-05-08T13:13:17;22.00;45.20
8103;DHT22;4094;49.948;11.574;2023-05-08T13:15:48;22.00;45.60
8103;DHT22;4094;49.948;11.574;2023-05-08T13:18:19;22.00;45.70
8103;DHT22;4094;49.948;11.574;2023-05-08T13:20:49;22.10;45.50
8103;DHT22;4094;49.948;11.574;2023-05-08T13:23:19;22.10;44.70
8103;DHT22;4094;49.948;11.574;2023-05-08T13:25:50;22.10;44.70
8103;DHT22;4094;49.948;11.574;2023-05-08T13:28:20;22.10;44.30
8103;DHT22;4094;49.948;11.574;2023-05-08T13:30:49;22.10;44.10
8103;DHT22;4094;49.948;11.574;2023-05-08T13:33:18;22.00;44.20
8103;DHT22;4094;49.948;11.574;2023-05-08T13:35:48;22.00;44.00
8103;DHT22;4094;49.948;11.574;2023-05-08T13:38:17;21.90;43.90
8103;DHT22;4094;49.948;11.574;2023-05-08T13:40:47;21.90;44.00
8103;DHT22;4094;49.948;11.574;2023-05-08T13:43:17;21.90;43.60
8103;DHT22;4094;49.948;11.574;2023-05-08T13:45:47;21.80;43.70
8103;DHT22;4094;49.948;11.574;2023-05-08T13:48:16;21.80;44.30
8103;DHT22;4094;49.948;11.574;2023-05-08T13:50:45;21.80;43.60
8103;DHT22;4094;49.948;11.574;2023-05-08T13:53:14;21.70;43.40
8103;DHT22;4094;49.948;11.574;2023-05-08T13:55:44;21.70;43.40
8103;DHT22;4094;49.948;11.574;2023-05-08T13:58:13;21.70;43.90
8103;DHT22;4094;49.948;11.574;2023-05-08T14:00:44;21.80;43.80
8103;DHT22;4094;49.948;11.574;2023-05-08T14:03:13;21.90;43.70
8103;DHT22;4094;49.948;11.574;2023-05-08T14:05:43;22.00;43.30
8103;DHT22;4094;49.948;11.574;2023-05-08T14:08:12;22.00;43.30
8103;DHT22;4094;49.948;11.574;2023-05-08T14:10:41;22.10;43.30
8103;DHT22;4094;49.948;11.574;2023-05-08T14:13:10;22.10;42.90
8103;DHT22;4094;49.948;11.574;2023-05-08T14:15:40;22.10;42.10
8103;DHT22;4094;49.948;11.574;2023-05-08T14:18:10;22.20;42.00
8103;DHT22;4094;49.948;11.574;2023-05-08T14:20:40;22.20;42.00
8103;DHT22;4094;49.948;11.574;2023-05-08T14:23:15;22.20;42.10
8103;DHT22;4094;49.948;11.574;2023-05-08T14:25:45;22.30;42.30
8103;DHT22;4094;49.948;11.574;2023-05-08T14:28:14;22.30;41.90
8103;DHT22;4094;49.948;11.574;2023-05-08T14:30:43;22.40;42.00
8103;DHT22;4094;49.948;11.574;2023-05-08T14:33:14;22.40;41.00
8103;DHT22;4094;49.948;11.574;2023-05-08T14:35:46;22.40;40.60
8103;DHT22;4094;49.948;11.574;2023-05-08T14:38:16;22.40;40.80
8103;DHT22;4094;49.948;11.574;2023-05-08T14:40:48;22.40;40.40
8103;DHT22;4094;49.948;11.574;2023-05-08T14:43:18;22.30;40.20
8103;DHT22;4094;49.948;11.574;2023-05-08T14:45:50;22.30;40.60
8103;DHT22;4094;49.948;11.574;2023-05-08T14:48:23;22.20;40.50
8103;DHT22;4094;49.948;11.574;2023-05-08T14:50:52;22.20;40.90
8103;DHT22;4094;49.948;11.574;2023-05-08T14:53:21;22.20;40.20
8103;DHT22;4094;49.948;11.574;2023-05-08T14:55:51;22.10;40.20
8103;DHT22;4094;49.948;11.574;2023-05-08T14:58:21;22.10;40.10
8103;DHT22;4094;49.948;11.574;2023-05-08T15:00:50;22.10;40.30
8103;DHT22;4094;49.948;11.574;2023-05-08T15:03:21;22.00;40.30
8103;DHT22;4094;49.948;11.574;2023-05-08T15:05:51;22.00;40.40
8103;DHT22;4094;49.948;11.574;2023-05-08T15:08:20;22.00;39.80
8103;DHT22;4094;49.948;11.574;2023-05-08T15:10:52;22.00;39.60
8103;DHT22;4094;49.948;11.574;2023-05-08T15:13:21;21.90;39.60
8103;DHT22;4094;49.948;11.574;2023-05-08T15:15:51;21.80;39.50
8103;DHT22;4094;49.948;11.574;2023-05-08T15:18:22;21.80;39.70
8103;DHT22;4094;49.948;11.574;2023-05-08T15:20:52;21.70;39.70
8103;DHT22;4094;49.948;11.574;2023-05-08T15:23:21;21.70;39.90
8103;DHT22;4094;49.948;11.574;2023-05-08T15:25:50;21.60;40.10
8103;DHT22;4094;49.948;11.574;2023-05-08T15:28:20;21.60;40.20
8103;DHT22;4094;49.948;11.574;2023-05-08T15:30:49;21.60;40.00
8103;DHT22;4094;49.948;11.574;2023-05-08T15:33:18;21.50;39.60
8103;DHT22;4094;49.948;11.574;2023-05-08T15:35:49;21.50;39.80
8103;DHT22;4094;49.948;11.574;2023-05-08T15:38:19;21.40;40.00
8103;DHT22;4094;49.948;11.574;2023-05-08T15:40:49;21.40;39.70
8103;DHT22;4094;49.948;11.574;2023-05-08T15:43:20;21.30;39.30
8103;DHT22;4094;49.948;11.574;2023-05-08T15:45:49;21.30;39.20
8103;DHT22;4094;49.948;11.574;2023-05-08T15:48:19;21.30;39.10
8103;DHT22;4094;49.948;11.574;2023-05-08T15:50:50;21.20;38.90
8103;DHT22;4094;49.948;11.574;2023-05-08T15:53:19;21.20;39.00
8103;DHT22;4094;49.948;11.574;2023-05-08T15:55:48;21.20;39.00
8103;DHT22;4094;49.948;11.574;2023-05-08T15:58:17;21.10;38.90
8103;DHT22;4094;49.948;11.574;2023-05-08T16:00:47;21.10;39.20
8103;DHT22;4094;49.948;11.574;2023-05-08T16:03:16;21.10;38.40
8103;DHT22;4094;49.948;11.574;2023-05-08T16:05:46;21.00;38.60
8103;DHT22;4094;49.948;11.574;2023-05-08T16:08:16;21.00;38.60
8103;DHT22;4094;49.948;11.574;2023-05-08T16:10:46;21.00;38.40
8103;DHT22;4094;49.948;11.574;2023-05-08T16:13:15;20.90;38.80
8103;DHT22;4094;49.948;11.574;2023-05-08T16:15:45;20.90;39.30